createdAt,value
2022-07-30T00:00:38.068Z,8.60
2022-07-30T00:03:06.452Z,8.73
2022-07-30T00:05:36.318Z,8.63
2022-07-30T00:08:04.983Z,9.17
2022-07-30T00:10:33.451Z,9.60
2022-07-30T00:13:01.921Z,8.47
2022-07-30T00:15:30.375Z,8.80
2022-07-30T00:17:58.754Z,9.57
2022-07-30T00:20:28.907Z,9.50
2022-07-30T00:22:58.810Z,9.00
2022-07-30T00:25:27.268Z,9.37
2022-07-30T00:27:55.668Z,9.23
2022-07-30T00:30:24.317Z,8.73
2022-07-30T00:32:52.974Z,9.17
2022-07-30T00:35:21.425Z,10.20
2022-07-30T00:37:49.815Z,9.67
2022-07-30T00:40:19.721Z,9.97
2022-07-30T00:42:49.038Z,10.00
2022-07-30T00:45:18.319Z,9.30
2022-07-30T00:47:46.788Z,10.73
2022-07-30T00:50:15.741Z,10.47
2022-07-30T00:52:44.541Z,10.23
2022-07-30T00:55:14.852Z,10.10
2022-07-30T00:57:44.792Z,10.30
2022-07-30T01:00:14.982Z,9.67
2022-07-30T01:02:43.389Z,9.93
2022-07-30T01:05:12.181Z,10.27
2022-07-30T01:07:40.695Z,9.60
2022-07-30T01:10:10.500Z,9.87
2022-07-30T01:12:39.002Z,10.60
2022-07-30T01:15:10.405Z,11.50
2022-07-30T01:17:39.095Z,10.57
2022-07-30T01:20:08.153Z,10.23
2022-07-30T01:22:44.358Z,10.83
2022-07-30T01:25:16.055Z,10.27
2022-07-30T01:27:49.141Z,11.07
2022-07-30T01:30:19.524Z,10.40
2022-07-30T01:32:48.870Z,10.50
2022-07-30T01:35:18.535Z,10.77
2022-07-30T01:37:48.429Z,10.60
2022-07-30T01:40:17.052Z,9.70
2022-07-30T01:42:47.134Z,9.90
2022-07-30T01:45:16.308Z,9.27
2022-07-30T01:47:45.656Z,9.57
2022-07-30T01:50:15.293Z,8.50
2022-07-30T01:52:44.444Z,8.10
2022-07-30T01:55:17.214Z,7.90
2022-07-30T01:57:48.805Z,8.60
2022-07-30T02:00:17.765Z,8.10
2022-07-30T02:02:46.608Z,8.13
2022-07-30T02:05:15.079Z,8.43
2022-07-30T02:07:47.684Z,8.40
2022-07-30T02:10:17.693Z,9.83
2022-07-30T02:12:52.885Z,10.97
2022-07-30T02:15:25.489Z,10.60
2022-07-30T02:17:56.804Z,10.50
2022-07-30T02:20:28.723Z,10.73
2022-07-30T02:22:58.926Z,10.50
2022-07-30T02:25:28.586Z,9.73
2022-07-30T02:28:00.332Z,10.67
2022-07-30T02:30:29.885Z,10.43
2022-07-30T02:33:01.592Z,11.23
2022-07-30T02:35:31.632Z,10.70
2022-07-30T02:38:01.334Z,10.40
2022-07-30T02:40:29.856Z,10.13
2022-07-30T02:43:00.271Z,10.40
2022-07-30T02:45:29.515Z,11.33
2022-07-30T02:48:00.277Z,10.87
2022-07-30T02:50:29.569Z,10.90
2022-07-30T02:52:59.424Z,12.73
2022-07-30T02:55:28.888Z,12.20
2022-07-30T02:57:59.417Z,12.57
2022-07-30T03:00:30.672Z,12.00
2022-07-30T03:02:59.943Z,11.60
2022-07-30T03:05:30.731Z,11.27
2022-07-30T03:08:00.776Z,11.30
2022-07-30T03:10:29.497Z,11.23
2022-07-30T03:13:00.328Z,11.23
2022-07-30T03:15:29.520Z,12.77
2022-07-30T03:17:58.686Z,10.40
2022-07-30T03:20:28.272Z,12.03
2022-07-30T03:22:57.953Z,12.53
2022-07-30T03:25:27.708Z,11.93
2022-07-30T03:27:57.734Z,11.70
2022-07-30T03:30:28.051Z,11.70
2022-07-30T03:32:57.280Z,11.20
2022-07-30T03:35:26.485Z,12.37
2022-07-30T03:37:55.323Z,11.07
2022-07-30T03:40:24.169Z,11.53
2022-07-30T03:42:52.725Z,12.10
2022-07-30T03:45:21.922Z,11.37
2022-07-30T03:47:52.227Z,11.23
2022-07-30T03:50:20.645Z,11.80
2022-07-30T03:52:49.097Z,14.27
2022-07-30T03:55:17.630Z,15.10
2022-07-30T03:57:46.132Z,15.57
2022-07-30T04:00:15.515Z,15.47
2022-07-30T04:02:44.145Z,16.70
2022-07-30T04:05:14.618Z,16.20
2022-07-30T04:07:45.218Z,16.10
2022-07-30T04:10:13.998Z,17.20
2022-07-30T04:12:42.452Z,16.37
2022-07-30T04:16:38.454Z,17.03
2022-07-30T04:18:03.457Z,16.17
2022-07-30T04:20:34.651Z,15.40
2022-07-30T04:23:03.460Z,15.53
2022-07-30T04:25:32.384Z,14.70
2022-07-30T04:28:03.840Z,15.43
2022-07-30T04:30:33.393Z,15.70
2022-07-30T04:33:01.955Z,15.07
2022-07-30T04:35:51.114Z,14.63
2022-07-30T04:38:20.323Z,14.37
2022-07-30T04:40:49.284Z,15.30
2022-07-30T04:43:17.744Z,15.40
2022-07-30T04:45:46.164Z,15.17
2022-07-30T04:48:14.595Z,14.77
2022-07-30T04:50:45.172Z,14.33
2022-07-30T04:53:13.987Z,14.07
2022-07-30T04:55:46.906Z,13.70
2022-07-30T04:58:16.866Z,13.17
2022-07-30T05:00:45.347Z,14.17
2022-07-30T05:03:14.947Z,13.93
2022-07-30T05:05:43.833Z,13.67
2022-07-30T05:08:12.674Z,13.37
2022-07-30T05:10:41.133Z,12.43
2022-07-30T05:13:14.369Z,13.40
2022-07-30T05:15:44.801Z,11.77
2022-07-30T05:18:13.997Z,12.33
2022-07-30T05:20:42.535Z,13.13
2022-07-30T05:23:10.915Z,12.47
2022-07-30T05:25:39.389Z,12.43
2022-07-30T05:28:07.792Z,13.13
2022-07-30T05:30:37.600Z,13.30
2022-07-30T05:33:14.437Z,13.53
2022-07-30T05:35:44.359Z,12.87
2022-07-30T05:38:13.168Z,13.43
2022-07-30T05:40:41.870Z,14.73
2022-07-30T05:43:10.246Z,13.90
2022-07-30T05:45:40.237Z,13.63
2022-07-30T05:48:09.300Z,14.13
2022-07-30T05:50:37.733Z,13.37
2022-07-30T05:53:07.208Z,13.50
2022-07-30T05:55:36.437Z,13.37
2022-07-30T05:58:04.945Z,13.97
2022-07-30T06:00:34.166Z,13.40
2022-07-30T06:03:03.953Z,12.77
2022-07-30T06:05:32.981Z,12.93
2022-07-30T06:08:01.413Z,12.77
2022-07-30T06:10:29.796Z,11.70
2022-07-30T06:12:58.211Z,11.20
2022-07-30T06:15:28.106Z,11.77
2022-07-30T06:17:59.519Z,10.50
2022-07-30T06:20:31.537Z,11.23
2022-07-30T06:22:59.984Z,11.87
2022-07-30T06:25:28.437Z,10.73
2022-07-30T06:27:56.893Z,10.90
2022-07-30T06:30:31.159Z,12.40
2022-07-30T06:33:00.004Z,11.30
2022-07-30T06:35:28.455Z,10.90
2022-07-30T06:38:06.864Z,10.95
2022-07-30T06:40:36.334Z,11.02
2022-07-30T06:43:05.242Z,10.43
2022-07-30T06:45:37.379Z,11.07
2022-07-30T06:48:06.671Z,9.77
2022-07-30T06:50:35.301Z,9.02
2022-07-30T06:53:05.163Z,9.07
2022-07-30T06:55:33.640Z,8.43
2022-07-30T06:58:02.052Z,9.10
2022-07-30T07:00:30.976Z,8.45
2022-07-30T07:02:59.415Z,8.88
2022-07-30T07:05:29.283Z,9.00
2022-07-30T07:07:59.670Z,8.90
2022-07-30T07:10:29.898Z,9.57
2022-07-30T07:13:00.697Z,8.52
2022-07-30T07:15:36.474Z,8.75
2022-07-30T07:18:06.537Z,7.38
2022-07-30T07:20:35.075Z,8.23
2022-07-30T07:23:09.450Z,7.90
2022-07-30T07:25:42.105Z,8.35
2022-07-30T07:28:11.791Z,8.68
2022-07-30T07:30:41.537Z,8.90
2022-07-30T07:33:10.132Z,8.90
2022-07-30T07:35:41.185Z,9.32
2022-07-30T07:38:18.686Z,7.60
2022-07-30T07:40:48.512Z,7.38
2022-07-30T07:43:17.168Z,8.15
2022-07-30T07:45:46.356Z,8.02
2022-07-30T07:48:15.024Z,7.88
2022-07-30T07:50:43.589Z,8.38
2022-07-30T07:53:12.944Z,7.78
2022-07-30T07:55:41.463Z,9.02
2022-07-30T07:58:13.685Z,7.40
2022-07-30T08:00:46.617Z,7.47
2022-07-30T08:03:15.123Z,6.90
2022-07-30T08:06:01.222Z,6.50
2022-07-30T08:08:32.093Z,6.25
2022-07-30T08:11:00.535Z,5.97
2022-07-30T08:13:51.551Z,6.80
2022-07-30T08:16:18.811Z,5.90
2022-07-30T08:18:47.253Z,6.35
2022-07-30T08:21:16.409Z,5.90
2022-07-30T08:23:44.876Z,5.90
2022-07-30T08:26:13.290Z,6.00
2022-07-30T08:28:45.681Z,5.88
2022-07-30T08:31:14.409Z,5.40
2022-07-30T08:33:42.923Z,5.30
2022-07-30T08:36:11.387Z,5.97
2022-07-30T08:38:41.043Z,5.72
2022-07-30T08:41:09.577Z,5.43
2022-07-30T08:43:38.810Z,6.15
2022-07-30T08:46:11.097Z,5.30
2022-07-30T08:48:40.027Z,5.68
2022-07-30T08:51:08.681Z,5.20
2022-07-30T08:53:37.487Z,4.85
2022-07-30T08:56:09.788Z,4.55
2022-07-30T08:58:38.290Z,4.78
2022-07-30T09:01:07.413Z,4.65
2022-07-30T09:03:44.299Z,5.22
2022-07-30T09:06:13.383Z,4.70
2022-07-30T09:08:41.964Z,4.80
2022-07-30T09:11:10.614Z,4.70
2022-07-30T09:13:41.706Z,4.22
2022-07-30T09:16:20.047Z,4.45
2022-07-30T09:18:49.847Z,4.20
2022-07-30T09:21:18.833Z,4.38
2022-07-30T09:24:00.412Z,5.03
2022-07-30T09:26:29.247Z,5.22
2022-07-30T09:28:58.257Z,4.55
2022-07-30T09:31:27.804Z,4.53
2022-07-30T09:33:57.575Z,4.63
2022-07-30T09:36:26.574Z,5.13
2022-07-30T09:38:56.164Z,4.78
2022-07-30T09:41:39.365Z,5.28
2022-07-30T09:44:08.320Z,4.80
2022-07-30T09:46:45.045Z,5.00
2022-07-30T09:49:18.497Z,5.38
2022-07-30T09:51:56.007Z,5.88
2022-07-30T09:54:25.671Z,5.60
2022-07-30T09:57:06.555Z,5.55
2022-07-30T09:59:51.732Z,5.20
2022-07-30T10:02:20.478Z,5.57
2022-07-30T10:04:51.363Z,6.25
2022-07-30T10:07:25.694Z,5.63
2022-07-30T10:09:54.422Z,5.85
2022-07-30T10:12:24.229Z,5.22
2022-07-30T10:14:54.894Z,5.50
2022-07-30T10:17:23.991Z,5.72
2022-07-30T10:19:55.292Z,5.55
2022-07-30T10:22:24.103Z,5.38
2022-07-30T10:24:55.104Z,5.22
2022-07-30T10:27:26.102Z,4.80
2022-07-30T10:30:03.520Z,4.70
2022-07-30T10:32:33.481Z,4.82
2022-07-30T10:35:03.620Z,5.10
2022-07-30T10:37:33.228Z,4.18
2022-07-30T10:40:05.598Z,3.85
2022-07-30T10:42:40.950Z,3.38
2022-07-30T10:45:27.079Z,3.63
2022-07-30T10:47:56.936Z,3.20
2022-07-30T10:50:29.081Z,2.85
2022-07-30T10:52:58.677Z,3.20
2022-07-30T10:55:37.166Z,3.20
2022-07-30T10:58:08.372Z,3.35
2022-07-30T11:00:38.606Z,3.28
2022-07-30T11:03:15.151Z,3.25
2022-07-30T11:05:46.480Z,3.75
2022-07-30T11:08:31.817Z,4.22
2022-07-30T11:11:19.702Z,4.00
2022-07-30T11:13:53.511Z,3.90
2022-07-30T11:16:23.277Z,3.80
2022-07-30T11:22:19.267Z,3.90
2022-07-30T11:24:49.014Z,3.65
2022-07-30T11:27:32.445Z,3.63
2022-07-30T11:30:08.170Z,3.75
2022-07-30T11:32:37.195Z,3.85
2022-07-30T11:35:15.805Z,3.83
2022-07-30T11:38:02.412Z,3.60
2022-07-30T11:40:31.568Z,3.72
2022-07-30T11:43:34.876Z,3.75
2022-07-30T11:46:07.536Z,3.88
2022-07-30T11:51:21.979Z,3.28
2022-07-30T11:54:03.718Z,3.55
2022-07-30T11:56:32.471Z,3.60
2022-07-30T11:59:04.241Z,3.65
2022-07-30T12:01:33.519Z,3.47
2022-07-30T12:04:04.101Z,3.70
2022-07-30T12:06:33.598Z,3.50
2022-07-30T12:09:03.624Z,3.50
2022-07-30T12:11:33.632Z,3.55
2022-07-30T12:14:02.666Z,3.47
2022-07-30T12:16:32.479Z,3.40
2022-07-30T12:19:03.784Z,3.53
2022-07-30T12:21:32.317Z,3.80
2022-07-30T12:24:01.779Z,3.83
2022-07-30T12:26:32.561Z,3.55
2022-07-30T12:29:02.534Z,3.40
2022-07-30T12:31:31.055Z,3.63
2022-07-30T12:34:00.739Z,3.60
2022-07-30T12:36:30.932Z,3.25
2022-07-30T12:39:00.303Z,3.75
2022-07-30T12:41:46.037Z,3.45
2022-07-30T12:44:29.326Z,3.80
2022-07-30T12:46:57.724Z,3.65
2022-07-30T12:49:37.594Z,3.35
2022-07-30T12:52:28.396Z,3.47
2022-07-30T12:55:01.289Z,3.88
2022-07-30T12:57:31.117Z,3.80
2022-07-30T13:00:03.924Z,3.67
2022-07-30T13:02:33.141Z,3.80
2022-07-30T13:05:10.220Z,3.53
2022-07-30T13:07:53.951Z,3.85
2022-07-30T13:10:24.216Z,3.50
2022-07-30T13:12:58.301Z,3.70
2022-07-30T13:15:26.779Z,3.45
2022-07-30T13:17:55.201Z,3.92
2022-07-30T13:20:26.905Z,3.63
2022-07-30T13:23:00.105Z,3.60
2022-07-30T13:25:38.811Z,3.45
2022-07-30T13:28:10.370Z,3.70
2022-07-30T13:30:38.784Z,3.65
2022-07-30T13:33:07.304Z,3.65
2022-07-30T13:35:35.718Z,3.50
2022-07-30T13:38:04.149Z,3.50
2022-07-30T13:40:32.742Z,3.70
2022-07-30T13:43:01.189Z,3.45
2022-07-30T13:45:31.299Z,3.55
2022-07-30T13:47:59.690Z,3.30
2022-07-30T13:50:28.099Z,3.40
2022-07-30T13:53:01.753Z,3.17
2022-07-30T13:55:30.669Z,3.55
2022-07-30T13:57:59.070Z,3.60
2022-07-30T14:00:32.427Z,3.60
2022-07-30T14:03:03.021Z,3.25
2022-07-30T14:05:32.927Z,3.28
2022-07-30T14:08:01.845Z,3.05
2022-07-30T14:10:30.380Z,3.22
2022-07-30T14:13:00.021Z,3.28
2022-07-30T14:15:31.052Z,3.05
2022-07-30T14:18:00.139Z,3.65
2022-07-30T14:20:30.479Z,3.50
2022-07-30T14:22:59.275Z,3.28
2022-07-30T14:25:27.778Z,3.17
2022-07-30T14:27:56.205Z,3.00
2022-07-30T14:30:25.194Z,3.20
2022-07-30T14:32:59.206Z,2.90
2022-07-30T14:35:31.467Z,3.20
2022-07-30T14:37:59.914Z,3.08
2022-07-30T14:40:28.318Z,3.47
2022-07-30T14:42:56.851Z,3.15
2022-07-30T14:45:26.439Z,3.10
2022-07-30T14:47:57.493Z,2.80
2022-07-30T14:50:25.940Z,3.17
2022-07-30T14:52:55.696Z,3.20
2022-07-30T14:55:24.205Z,3.33
2022-07-30T14:57:52.586Z,3.08
2022-07-30T15:00:21.388Z,2.80
2022-07-30T15:02:52.863Z,2.67
2022-07-30T15:05:21.296Z,2.92
2022-07-30T15:07:49.672Z,3.05
2022-07-30T15:10:19.587Z,3.17
2022-07-30T15:12:47.974Z,2.88
2022-07-30T15:15:16.624Z,2.75
2022-07-30T15:17:46.043Z,3.28
2022-07-30T15:20:14.505Z,3.20
2022-07-30T15:22:42.903Z,2.95
2022-07-30T15:25:11.357Z,2.95
2022-07-30T15:27:41.133Z,2.88
2022-07-30T15:30:10.045Z,3.10
2022-07-30T15:32:38.603Z,3.10
2022-07-30T15:35:11.868Z,2.97
2022-07-30T15:37:42.584Z,2.80
2022-07-30T15:40:11.347Z,3.20
2022-07-30T15:42:42.623Z,2.88
2022-07-30T15:45:18.887Z,2.60
2022-07-30T15:47:47.741Z,2.92
2022-07-30T15:50:17.348Z,2.75
2022-07-30T15:52:45.840Z,2.78
2022-07-30T15:55:14.305Z,2.80
2022-07-30T15:57:44.378Z,2.67
2022-07-30T16:00:13.180Z,3.38
2022-07-30T16:02:42.011Z,3.42
2022-07-30T16:05:13.996Z,3.03
2022-07-30T16:07:42.890Z,3.00
2022-07-30T16:10:11.559Z,2.90
2022-07-30T16:12:39.971Z,3.03
2022-07-30T16:15:11.018Z,2.90
2022-07-30T16:17:39.552Z,3.17
2022-07-30T16:20:09.724Z,2.92
2022-07-30T16:22:38.403Z,3.40
2022-07-30T16:25:07.287Z,3.22
2022-07-30T16:27:38.175Z,3.30
2022-07-30T16:30:06.858Z,2.97
2022-07-30T16:32:36.615Z,3.20
2022-07-30T16:35:05.096Z,2.53
2022-07-30T16:37:33.466Z,2.83
2022-07-30T16:40:03.459Z,2.97
2022-07-30T16:42:32.495Z,3.30
2022-07-30T16:45:00.932Z,2.92
2022-07-30T16:47:34.336Z,3.20
2022-07-30T16:50:04.830Z,3.45
2022-07-30T16:52:33.317Z,3.15
2022-07-30T16:55:02.041Z,3.08
2022-07-30T16:57:30.446Z,2.88
2022-07-30T16:59:58.897Z,3.17
2022-07-30T17:02:27.425Z,2.63
2022-07-30T17:04:56.028Z,3.08
2022-07-30T17:07:25.796Z,2.78
2022-07-30T17:09:54.758Z,3.53
2022-07-30T17:12:27.576Z,2.60
2022-07-30T17:14:56.677Z,2.83
2022-07-30T17:17:26.205Z,2.85
2022-07-30T17:19:54.755Z,2.95
2022-07-30T17:22:23.444Z,3.40
2022-07-30T17:24:53.389Z,3.38
2022-07-30T17:27:26.610Z,3.20
2022-07-30T17:29:59.190Z,3.05
2022-07-30T17:32:28.007Z,2.97
2022-07-30T17:34:56.719Z,2.70
2022-07-30T17:37:25.205Z,2.78
2022-07-30T17:40:04.234Z,3.10
2022-07-30T17:42:46.597Z,3.20
2022-07-30T17:45:15.729Z,3.80
2022-07-30T17:47:44.331Z,3.65
2022-07-30T17:50:14.892Z,3.20
2022-07-30T17:52:43.776Z,3.67
2022-07-30T17:55:14.303Z,3.25
2022-07-30T17:57:43.461Z,3.65
2022-07-30T18:00:13.120Z,3.30
2022-07-30T18:02:41.860Z,3.00
2022-07-30T18:05:14.525Z,3.05
2022-07-30T18:07:43.145Z,3.50
2022-07-30T18:10:14.126Z,3.30
2022-07-30T18:12:48.592Z,3.30
2022-07-30T18:15:21.563Z,3.00
2022-07-30T18:17:54.457Z,3.55
2022-07-30T18:20:23.595Z,3.00
2022-07-30T18:22:52.713Z,3.15
2022-07-30T18:25:23.408Z,3.10
2022-07-30T18:27:53.131Z,3.22
2022-07-30T18:33:04.323Z,2.97
2022-07-30T18:35:32.947Z,3.75
2022-07-30T18:38:01.587Z,3.50
2022-07-30T18:40:41.249Z,3.45
2022-07-30T18:53:15.426Z,3.75
2022-07-30T18:55:49.341Z,3.70
2022-07-30T18:58:18.037Z,3.47
2022-07-30T19:00:49.060Z,3.40
2022-07-30T19:03:22.680Z,3.55
2022-07-30T19:05:51.726Z,3.30
2022-07-30T19:08:20.324Z,3.38
2022-07-30T19:10:50.253Z,3.60
2022-07-30T19:13:20.713Z,3.95
2022-07-30T19:15:49.360Z,3.92
2022-07-30T19:18:17.826Z,3.88
2022-07-30T19:20:46.256Z,4.40
2022-07-30T19:23:16.804Z,3.78
2022-07-30T19:25:45.305Z,3.67
2022-07-30T19:28:17.123Z,2.30
2022-07-30T19:30:45.638Z,2.30
2022-07-30T19:33:15.745Z,2.35
2022-07-30T19:35:44.528Z,2.88
2022-07-30T19:38:14.392Z,3.70
2022-07-30T19:40:51.484Z,4.65
2022-07-30T19:43:23.767Z,4.78
2022-07-30T19:45:58.707Z,4.63
2022-07-30T19:48:29.496Z,4.20
2022-07-30T19:51:04.367Z,4.35
2022-07-30T19:53:39.863Z,4.45
2022-07-30T19:56:23.497Z,5.05
2022-07-30T19:59:15.013Z,4.53
2022-07-30T20:01:44.035Z,4.82
2022-07-30T20:04:14.448Z,4.57
2022-07-30T20:06:45.960Z,4.80
2022-07-30T20:09:16.254Z,4.75
2022-07-30T20:11:45.847Z,4.88
2022-07-30T20:14:16.564Z,4.85
2022-07-30T20:16:48.736Z,4.80
2022-07-30T20:19:20.343Z,4.93
2022-07-30T20:21:56.889Z,4.78
2022-07-30T20:24:26.519Z,5.05
2022-07-30T20:26:55.074Z,4.85
2022-07-30T20:29:24.924Z,4.90
2022-07-30T20:31:53.730Z,4.57
2022-07-30T20:34:26.022Z,5.30
2022-07-30T20:36:56.576Z,5.00
2022-07-30T20:39:25.366Z,5.03
2022-07-30T20:42:07.913Z,4.85
2022-07-30T20:44:38.965Z,5.28
2022-07-30T20:47:08.399Z,6.25
2022-07-30T20:49:37.107Z,5.38
2022-07-30T20:52:06.371Z,4.90
2022-07-30T20:54:35.021Z,5.18
2022-07-30T20:57:04.158Z,5.15
2022-07-30T20:59:37.286Z,5.45
2022-07-30T21:02:16.467Z,5.75
2022-07-30T21:04:46.539Z,5.60
2022-07-30T21:07:15.044Z,4.90
2022-07-30T21:09:49.830Z,5.10
2022-07-30T21:12:33.012Z,5.00
2022-07-30T21:15:01.704Z,5.80
2022-07-30T21:17:31.472Z,5.63
2022-07-30T21:20:01.235Z,5.50
2022-07-30T21:22:29.857Z,5.18
2022-07-30T21:24:58.398Z,5.75
2022-07-30T21:27:29.914Z,5.43
2022-07-30T21:29:58.940Z,6.13
2022-07-30T21:32:28.369Z,5.55
2022-07-30T21:34:58.434Z,5.90
2022-07-30T21:37:36.686Z,6.18
2022-07-30T21:40:05.914Z,6.18
2022-07-30T21:45:38.676Z,6.18
2022-07-30T21:48:10.739Z,6.40
2022-07-30T21:50:42.012Z,6.47
2022-07-30T21:53:11.682Z,6.32
2022-07-30T21:55:52.927Z,6.65
2022-07-30T21:58:26.245Z,5.88
2022-07-30T22:04:04.092Z,6.85
2022-07-30T22:06:44.790Z,6.93
2022-07-30T22:09:33.482Z,6.65
2022-07-30T22:12:09.373Z,6.80
2022-07-30T22:14:40.711Z,6.18
2022-07-30T22:17:22.828Z,6.90
2022-07-30T22:19:58.175Z,6.53
2022-07-30T22:22:35.579Z,6.38
2022-07-30T22:25:09.455Z,6.45
2022-07-30T22:27:40.137Z,6.65
2022-07-30T22:30:26.803Z,5.70
2022-07-30T22:32:55.655Z,6.50
2022-07-30T22:35:33.540Z,5.75
2022-07-30T22:38:07.688Z,5.60
2022-07-30T22:40:37.293Z,5.43
2022-07-30T22:43:08.285Z,6.50
2022-07-30T22:45:49.154Z,6.80
2022-07-30T22:48:26.913Z,7.10
2022-07-30T22:50:56.608Z,6.80
2022-07-30T22:54:02.866Z,6.95
2022-07-30T22:56:24.050Z,7.00
2022-07-30T22:58:52.558Z,7.40
2022-07-30T23:01:20.998Z,7.63
2022-07-30T23:03:51.510Z,7.40
2022-07-30T23:06:20.596Z,7.30
2022-07-30T23:08:50.707Z,7.38
2022-07-30T23:11:19.163Z,8.25
2022-07-30T23:12:28.082Z,7.13
2022-07-30T23:13:49.182Z,8.07
2022-07-30T23:16:17.727Z,7.43
2022-07-30T23:18:46.228Z,7.85
2022-07-30T23:21:15.095Z,8.25
2022-07-30T23:23:43.586Z,7.28
2022-07-30T23:26:13.395Z,7.68
2022-07-30T23:28:42.127Z,7.47
2022-07-30T23:31:10.574Z,8.00
2022-07-30T23:33:39.091Z,7.80
2022-07-30T23:36:07.916Z,8.45
2022-07-30T23:38:36.971Z,7.97
2022-07-30T23:41:06.827Z,8.20
2022-07-30T23:43:36.603Z,8.10
2022-07-30T23:46:06.166Z,8.15
2022-07-30T23:48:39.561Z,8.63
2022-07-30T23:51:07.980Z,7.80
2022-07-30T23:53:36.366Z,9.18
2022-07-30T23:56:04.965Z,10.00
2022-07-30T23:58:34.305Z,9.65
